Time;durP1;ratioP1;P1;durP2;ratioP2;P2;SDS_P1;SDS_P2;PMS_P1;PMS_P2;Temp;Humidity;BMP_temperature;BMP_pressure;BME280_temperature;BME280_humidity;BME280_pressure;Samples;Min_cycle;Max_cycle;Signal;HPM_P1;HPM_P2
2022/06/12 00:00:28;;;;;;;4.05;3.30;;;;;;;19.34;75.38;99306.98;1707975;82;21046;-74
2022/06/12 00:02:56;;;;;;;3.60;3.30;;;;;;;19.30;75.45;99296.34;1708037;83;20947;-73
2022/06/12 00:05:24;;;;;;;4.55;3.60;;;;;;;19.29;75.51;99297.41;1710897;82;20986;-74
2022/06/12 00:07:52;;;;;;;3.67;3.20;;;;;;;19.25;75.57;99305.66;1687544;82;21512;-73
2022/06/12 00:10:20;;;;;;;3.90;3.60;;;;;;;19.23;75.65;99305.07;1702125;84;20939;-74
2022/06/12 00:12:47;;;;;;;3.85;3.37;;;;;;;19.23;75.76;99305.59;1708132;83;21473;-73
2022/06/12 00:15:18;;;;;;;3.95;3.25;;;;;;;19.22;75.77;99303.41;1698863;82;20963;-72
2022/06/12 00:17:45;;;;;;;3.75;3.45;;;;;;;19.21;75.72;99306.35;1704874;82;20903;-73
2022/06/12 00:20:14;;;;;;;3.22;3.02;;;;;;;19.15;75.76;99312.13;1708082;83;21247;-73
2022/06/12 00:22:41;;;;;;;3.70;3.40;;;;;;;19.12;75.91;99307.19;1708084;83;21406;-73
2022/06/12 00:25:13;;;;;;;3.62;3.30;;;;;;;19.11;75.99;99310.93;1698618;82;20927;-73
2022/06/12 00:27:42;;;;;;;3.40;3.20;;;;;;;19.09;76.09;99311.69;1702901;82;20967;-73
2022/06/12 00:30:11;;;;;;;4.00;3.30;;;;;;;19.06;76.16;99310.27;1708324;83;20863;-73
2022/06/12 00:32:38;;;;;;;3.95;3.50;;;;;;;19.05;76.25;99313.22;1708026;83;21139;-73
2022/06/12 00:35:07;;;;;;;3.83;3.52;;;;;;;19.04;76.27;99306.16;1709102;82;20904;-72
2022/06/12 00:37:35;;;;;;;4.25;3.62;;;;;;;19.04;76.31;99304.81;1709112;82;21061;-72
2022/06/12 00:40:03;;;;;;;7.50;4.05;;;;;;;19.04;76.30;99302.13;1708143;83;20970;-73
2022/06/12 00:42:36;;;;;;;5.25;3.33;;;;;;;19.03;76.17;99298.59;1696054;83;21460;-73
2022/06/12 00:45:42;;;;;;;3.52;3.33;;;;;;;19.03;76.09;99306.69;1706552;82;21941;-73
2022/06/12 00:48:17;;;;;;;4.37;3.25;;;;;;;19.02;76.16;99301.53;1704776;82;21390;-73
2022/06/12 00:50:51;;;;;;;3.27;3.08;;;;;;;19.03;76.15;99297.80;1709857;82;20903;-73
2022/06/12 00:53:26;;;;;;;3.25;3.05;;;;;;;19.01;76.02;99299.87;1689280;83;20883;-72
2022/06/12 00:56:19;;;;;;;3.77;3.45;;;;;;;18.97;75.96;99298.70;1706819;82;20983;-73
2022/06/12 00:59:02;;;;;;;4.25;3.52;;;;;;;18.93;76.09;99294.28;1707448;83;21314;-73
2022/06/12 01:01:41;;;;;;;3.50;3.20;;;;;;;18.92;76.18;99289.97;1685253;83;20981;-73
2022/06/12 01:06:53;;;;;;;4.12;3.83;;;;;;;18.89;76.08;99285.55;1718530;82;21007;-73
2022/06/12 01:09:32;;;;;;;3.85;3.47;;;;;;;18.87;76.02;99293.88;1703517;82;20926;-73
2022/06/12 01:12:00;;;;;;;4.97;3.60;;;;;;;18.86;76.04;99295.42;1723515;82;21135;-74
2022/06/12 01:14:31;;;;;;;4.12;3.80;;;;;;;18.84;76.09;99297.02;1726552;81;20947;-73
2022/06/12 01:17:00;;;;;;;17.48;4.25;;;;;;;18.82;76.09;99292.91;1727314;81;21001;-73
2022/06/12 01:19:37;;;;;;;3.70;3.47;;;;;;;18.80;76.04;99294.98;1723652;82;21445;-71
2022/06/12 01:22:33;;;;;;;3.50;3.25;;;;;;;18.77;76.03;99284.68;1723714;82;20930;-72
2022/06/12 01:25:47;;;;;;;3.95;3.50;;;;;;;18.75;75.98;99286.23;1732413;81;21234;-73
2022/06/12 01:28:47;;;;;;;4.22;3.67;;;;;;;18.72;75.92;99284.55;1723498;82;20926;-73
2022/06/12 01:31:28;;;;;;;3.72;3.42;;;;;;;18.67;76.01;99287.06;1692472;82;20982;-73
2022/06/12 01:34:39;;;;;;;3.98;3.67;;;;;;;18.64;76.11;99287.55;1722234;81;20906;-73
2022/06/12 01:37:53;;;;;;;5.00;3.75;;;;;;;18.61;76.14;99286.64;1723675;82;20958;-73
2022/06/12 01:40:37;;;;;;;4.78;3.70;;;;;;;18.58;76.26;99288.44;1712292;82;21232;-72
2022/06/12 01:43:19;;;;;;;4.62;4.28;;;;;;;18.56;76.33;99281.95;1724841;82;20906;-71
2022/06/12 01:45:58;;;;;;;4.10;3.70;;;;;;;18.54;76.28;99283.22;1724364;81;20958;-73
2022/06/12 01:48:45;;;;;;;4.30;3.90;;;;;;;18.51;76.39;99283.67;1723531;82;20946;-74
2022/06/12 01:51:25;;;;;;;4.87;4.25;;;;;;;18.51;76.47;99278.28;1723664;82;20946;-73
2022/06/12 01:54:06;;;;;;;6.03;3.98;;;;;;;18.49;76.46;99276.63;1724131;81;21556;-73
2022/06/12 01:56:44;;;;;;;4.12;3.83;;;;;;;18.49;76.47;99280.66;1723368;82;21065;-73
2022/06/12 01:59:25;;;;;;;3.90;3.60;;;;;;;18.46;76.38;99278.38;1729709;81;21429;-72
2022/06/12 02:01:57;;;;;;;4.40;4.00;;;;;;;18.41;76.44;99280.94;1715285;82;21010;-72
2022/06/12 02:04:47;;;;;;;4.12;3.83;;;;;;;18.38;76.50;99282.72;1704854;82;20955;-72
2022/06/12 02:07:29;;;;;;;3.98;3.40;;;;;;;18.36;76.53;99277.27;1703430;82;21900;-71
2022/06/12 02:10:12;;;;;;;3.30;3.10;;;;;;;18.34;76.53;99276.16;1701828;82;21504;-73
2022/06/12 02:15:35;;;;;;;4.00;3.70;;;;;;;18.33;76.69;99283.09;1721594;82;21059;-73
2022/06/12 02:18:07;;;;;;;4.28;3.72;;;;;;;18.34;76.72;99289.63;1727963;82;21026;-73
2022/06/12 02:20:40;;;;;;;4.17;3.77;;;;;;;18.35;76.72;99283.72;1713472;82;20946;-72
2022/06/12 02:23:14;;;;;;;5.17;3.17;;;;;;;18.34;76.67;99288.27;1713519;82;20975;-72
2022/06/12 02:25:42;;;;;;;3.55;3.25;;;;;;;18.34;76.70;99288.79;1723842;82;20903;-73
2022/06/12 02:28:13;;;;;;;5.45;3.72;;;;;;;18.32;76.65;99284.16;1713855;82;20879;-73
2022/06/12 02:30:43;;;;;;;3.70;3.40;;;;;;;18.31;76.63;99286.55;1713535;82;21460;-73
2022/06/12 02:33:21;;;;;;;4.85;3.35;;;;;;;18.30;76.75;99289.75;1717836;82;21209;-73
2022/06/12 02:35:56;;;;;;;4.42;3.67;;;;;;;18.30;76.81;99297.03;1717682;82;21501;-73
2022/06/12 02:38:36;;;;;;;3.70;3.40;;;;;;;18.30;76.85;99296.48;1713225;82;21082;-73
2022/06/12 02:41:09;;;;;;;3.47;3.27;;;;;;;18.33;76.76;99303.30;1713485;82;21865;-72
2022/06/12 02:43:37;;;;;;;3.77;3.47;;;;;;;18.35;76.72;99306.06;1713559;83;21039;-73
2022/06/12 02:46:14;;;;;;;3.70;3.40;;;;;;;18.36;76.77;99296.94;1712891;82;21970;-72
2022/06/12 02:48:41;;;;;;;4.08;3.67;;;;;;;18.38;76.72;99300.78;1713586;82;20883;-73
2022/06/12 02:51:30;;;;;;;3.55;3.25;;;;;;;18.41;76.77;99297.09;1713571;81;20915;-73
2022/06/12 02:54:29;;;;;;;4.15;3.85;;;;;;;18.43;76.58;99296.33;1713058;82;20903;-74
2022/06/12 02:57:13;;;;;;;3.65;3.42;;;;;;;18.51;76.58;99302.52;1687666;82;20903;-74
2022/06/12 03:00:03;;;;;;;5.05;3.47;;;;;;;18.58;76.55;99303.26;1713602;82;21776;-74
2022/06/12 03:02:40;;;;;;;5.05;4.65;;;;;;;18.66;76.44;99299.74;1710660;82;21444;-74
2022/06/12 03:05:27;;;;;;;3.90;3.60;;;;;;;18.75;75.98;99304.27;1706185;82;21493;-73
2022/06/12 03:08:00;;;;;;;;;;;;;;;18.84;75.66;99305.62;1686535;83;20982;-74
2022/06/12 03:10:35;;;;;;;3.52;3.20;;;;;;;18.95;75.31;99297.56;1704538;83;20117;-73
2022/06/12 03:13:04;;;;;;;4.17;3.85;;;;;;;19.08;74.99;99292.54;1680365;84;21615;-74
2022/06/12 03:15:39;;;;;;;4.15;3.62;;;;;;;19.18;74.37;99294.16;1708333;82;20919;-73
2022/06/12 03:18:11;;;;;;;4.97;3.67;;;;;;;19.23;73.72;99287.55;1708109;83;20983;-74
2022/06/12 03:21:25;;;;;;;3.50;3.30;;;;;;;19.32;73.33;99290.19;1708160;83;21461;-73
2022/06/12 03:24:06;;;;;;;6.12;3.45;;;;;;;19.42;72.89;99293.17;1708122;83;20954;-74
2022/06/12 03:27:11;;;;;;;3.60;3.35;;;;;;;19.57;72.36;99295.44;1709133;82;22154;-73
2022/06/12 03:30:02;;;;;;;4.35;3.90;;;;;;;19.70;71.72;99289.83;1707420;83;20895;-74
2022/06/12 03:32:37;;;;;;;3.83;3.60;;;;;;;19.85;71.11;99290.70;1708012;83;21458;-74
2022/06/12 03:35:38;;;;;;;3.98;3.67;;;;;;;20.01;70.53;99285.44;1707555;82;21010;-73
2022/06/12 03:38:52;;;;;;;4.08;3.80;;;;;;;20.21;69.84;99282.34;1712978;82;20955;-72
2022/06/12 03:41:42;;;;;;;4.33;3.95;;;;;;;20.52;68.77;99290.08;1708257;83;21053;-72
2022/06/12 03:44:37;;;;;;;4.15;3.85;;;;;;;20.98;67.40;99290.98;1708256;83;20856;-75
2022/06/12 03:47:36;;;;;;;4.83;3.90;;;;;;;21.43;66.02;99295.91;1709275;82;21545;-74
2022/06/12 03:50:17;;;;;;;4.03;3.62;;;;;;;21.95;64.52;99298.66;1691220;83;20938;-72
2022/06/12 03:52:58;;;;;;;4.37;3.98;;;;;;;22.44;62.36;99294.23;1708142;83;20947;-73
2022/06/12 03:58:31;;;;;;;5.20;3.35;;;;;;;23.27;59.75;99295.21;1712287;82;20983;-73
2022/06/12 04:00:58;;;;;;;3.42;3.17;;;;;;;24.30;56.94;99289.00;1706660;82;21482;-73
2022/06/12 04:03:31;;;;;;;4.05;3.52;;;;;;;24.30;56.94;99289.00;1688268;83;21015;-72
2022/06/12 04:06:02;;;;;;;3.95;3.45;;;;;;;24.74;55.60;99289.47;1707430;82;20900;-73
2022/06/12 04:08:36;;;;;;;3.70;3.30;;;;;;;25.24;54.05;99284.73;1677831;83;21251;-73
2022/06/12 04:11:06;;;;;;;3.67;3.37;;;;;;;25.68;52.44;99289.40;1708513;83;20974;-73
2022/06/12 04:13:35;;;;;;;3.30;3.08;;;;;;;26.12;51.12;99292.41;1680598;83;20994;-73
2022/06/12 04:16:08;;;;;;;3.35;3.10;;;;;;;26.56;49.88;99288.45;1707131;82;20982;-72
2022/06/12 04:18:34;;;;;;;3.55;3.35;;;;;;;27.00;48.48;99295.91;1710165;82;21097;-73
2022/06/12 04:21:08;;;;;;;3.47;3.17;;;;;;;27.37;47.54;99282.58;1708234;83;21197;-72
2022/06/12 04:23:50;;;;;;;3.72;3.42;;;;;;;27.79;46.45;99286.92;1708410;83;21513;-74
2022/06/12 04:26:35;;;;;;;3.90;3.60;;;;;;;28.27;45.10;99290.56;1711367;82;20907;-74
2022/06/12 04:29:06;;;;;;;2.83;2.62;;;;;;;28.66;43.91;99291.78;1708197;83;20955;-73
2022/06/12 04:31:34;;;;;;;3.37;2.87;;;;;;;29.04;42.99;99290.74;1708313;83;20938;-74
2022/06/12 04:34:30;;;;;;;3.15;2.92;;;;;;;29.49;42.13;99292.00;1711421;82;21525;-74
2022/06/12 04:37:19;;;;;;;3.02;2.77;;;;;;;29.94;41.06;99289.91;1662725;84;20944;-73
2022/06/12 04:39:47;;;;;;;2.80;2.60;;;;;;;30.47;39.70;99298.55;1639395;86;21013;-74
2022/06/12 04:42:16;;;;;;;2.90;2.70;;;;;;;30.84;38.99;99298.07;1657212;86;20964;-73
2022/06/12 04:44:43;;;;;;;2.90;2.70;;;;;;;31.28;37.93;99298.20;1656940;85;21059;-73
2022/06/12 04:47:13;;;;;;;2.95;2.75;;;;;;;31.70;37.18;99296.95;1657279;85;21149;-73
2022/06/12 04:49:41;;;;;;;3.10;2.90;;;;;;;32.07;36.09;99294.39;1629300;86;20912;-73
2022/06/12 04:52:09;;;;;;;3.20;2.58;;;;;;;32.29;35.66;99297.89;1657251;86;20956;-74
2022/06/12 04:54:36;;;;;;;2.77;2.58;;;;;;;32.63;34.88;99290.36;1656603;85;20984;-73
2022/06/12 04:57:04;;;;;;;3.08;2.70;;;;;;;32.87;34.29;99292.13;1657182;86;21071;-73
2022/06/12 04:59:31;;;;;;;2.47;2.27;;;;;;;33.01;33.59;99289.81;1657284;86;21565;-73
2022/06/12 05:01:58;;;;;;;3.83;2.40;;;;;;;33.07;33.49;99284.39;1657046;86;20952;-73
2022/06/12 05:04:25;;;;;;;2.55;2.45;;;;;;;33.29;33.54;99292.53;1660378;84;21008;-72
2022/06/12 05:06:51;;;;;;;4.08;2.52;;;;;;;33.70;32.59;99287.91;1723621;82;21473;-72
2022/06/12 05:09:21;;;;;;;2.80;2.30;;;;;;;33.85;32.27;99285.45;1694194;82;20995;-74
2022/06/12 05:11:47;;;;;;;3.30;2.35;;;;;;;34.08;31.85;99282.74;1713930;82;21235;-71
2022/06/12 05:14:14;;;;;;;2.08;1.98;;;;;;;34.39;31.48;99283.05;1709149;82;20939;-73
2022/06/12 05:16:54;;;;;;;2.80;2.60;;;;;;;34.70;30.84;99284.36;1702541;82;21090;-73
2022/06/12 05:19:26;;;;;;;2.50;2.30;;;;;;;34.86;30.72;99279.07;1695698;82;21529;-74
2022/06/12 05:21:54;;;;;;;4.42;4.12;;;;;;;35.25;30.01;99280.04;1713502;82;20974;-73
2022/06/12 05:24:20;;;;;;;6.55;6.05;;;;;;;35.59;29.54;99275.41;1712765;82;21279;-73
2022/06/12 05:26:48;;;;;;;3.47;3.27;;;;;;;35.72;29.09;99279.23;1711626;82;20915;-74
2022/06/12 05:29:22;;;;;;;2.83;2.62;;;;;;;35.91;28.77;99279.55;1713421;82;21082;-73
2022/06/12 05:31:48;;;;;;;3.10;2.90;;;;;;;36.17;28.33;99275.13;1710426;82;20946;-73
2022/06/12 05:34:16;;;;;;;2.90;2.70;;;;;;;36.37;28.11;99278.38;1713011;82;21024;-73
2022/06/12 05:36:43;;;;;;;2.17;2.08;;;;;;;36.64;27.80;99278.30;1718403;82;22208;-74
2022/06/12 05:39:09;;;;;;;2.62;1.90;;;;;;;36.88;27.41;99280.24;1713469;82;21390;-74
2022/06/12 05:41:36;;;;;;;3.00;2.30;;;;;;;37.25;27.13;99277.66;1710440;82;21529;-74
2022/06/12 05:44:03;;;;;;;2.55;1.90;;;;;;;37.58;26.58;99277.45;1713521;82;21054;-73
2022/06/12 05:46:29;;;;;;;2.17;2.08;;;;;;;37.81;26.29;99274.90;1710136;82;21453;-71
2022/06/12 05:48:56;;;;;;;3.95;2.30;;;;;;;38.15;25.79;99275.08;1713621;82;22084;-69
2022/06/12 05:51:22;;;;;;;1.82;1.72;;;;;;;38.36;25.37;99274.84;1712694;82;21025;-70
2022/06/12 05:53:49;;;;;;;2.33;2.05;;;;;;;38.69;25.02;99279.42;1713656;82;20887;-70
2022/06/12 05:56:19;;;;;;;2.42;2.22;;;;;;;38.99;24.66;99283.12;1712876;82;20959;-74
2022/06/12 05:58:46;;;;;;;2.20;2.10;;;;;;;39.23;24.41;99284.30;1719210;82;20935;-74
2022/06/12 06:01:15;;;;;;;3.22;1.82;;;;;;;39.32;24.23;99289.04;1718728;81;21230;-73
2022/06/12 06:03:41;;;;;;;2.10;1.95;;;;;;;39.49;23.88;99280.28;1723203;82;21035;-72
2022/06/12 06:06:09;;;;;;;3.62;2.83;;;;;;;39.72;23.71;99281.75;1714981;82;20990;-72
2022/06/12 06:08:36;;;;;;;2.75;2.55;;;;;;;39.71;23.46;99280.16;1687965;82;21032;-72
2022/06/12 06:11:06;;;;;;;2.02;1.92;;;;;;;39.39;23.81;99290.02;1713540;82;21045;-72
2022/06/12 06:13:32;;;;;;;3.50;1.98;;;;;;;39.13;23.92;99289.83;1713504;82;21164;-72
2022/06/12 06:16:01;;;;;;;2.60;2.22;;;;;;;39.10;23.84;99290.55;1713522;82;20922;-71
2022/06/12 06:18:28;;;;;;;1.80;1.70;;;;;;;39.21;23.89;99285.25;1717946;82;21493;-71
2022/06/12 06:20:56;;;;;;;1.57;1.47;;;;;;;39.40;23.60;99290.80;1713004;83;20971;-73
2022/06/12 06:23:22;;;;;;;2.25;1.80;;;;;;;39.48;23.53;99284.22;1713166;82;20982;-68
2022/06/12 06:25:49;;;;;;;1.90;1.77;;;;;;;39.58;23.54;99282.23;1713479;82;21160;-71
2022/06/12 06:28:16;;;;;;;1.72;1.62;;;;;;;40.00;23.22;99285.88;1713636;82;20939;-70
2022/06/12 06:30:43;;;;;;;1.77;1.65;;;;;;;40.45;22.84;99281.52;1713601;82;21543;-71
2022/06/12 06:33:10;;;;;;;1.52;1.42;;;;;;;40.96;22.59;99282.76;1713525;82;20995;-70
2022/06/12 06:35:37;;;;;;;3.70;2.15;;;;;;;41.63;21.68;99285.67;1715541;82;21469;-72
2022/06/12 06:38:04;;;;;;;1.80;1.70;;;;;;;42.12;21.18;99276.48;1712312;82;21888;-73
2022/06/12 06:40:31;;;;;;;1.87;1.77;;;;;;;42.44;20.64;99266.98;1681122;83;20985;-75
2022/06/12 06:42:58;;;;;;;1.70;1.60;;;;;;;42.68;20.42;99272.00;1722437;82;21076;-73
2022/06/12 06:48:11;;;;;;;1.62;1.45;;;;;;;43.35;19.76;99267.42;1712248;82;21133;-72
2022/06/12 06:50:37;;;;;;;2.87;1.60;;;;;;;43.66;19.18;99272.92;1712949;82;21246;-72
2022/06/12 06:53:04;;;;;;;1.85;1.75;;;;;;;43.46;19.21;99267.68;1727167;82;20993;-71
2022/06/12 06:55:31;;;;;;;2.05;1.82;;;;;;;43.46;19.19;99267.68;1726764;82;21055;-71
2022/06/12 06:57:58;;;;;;;1.50;1.40;;;;;;;43.42;18.97;99264.05;1690321;83;20999;-72
2022/06/12 07:00:31;;;;;;;1.80;1.70;;;;;;;43.04;19.36;99264.65;1712258;82;21062;-71
2022/06/12 07:02:57;;;;;;;1.87;1.60;;;;;;;43.10;19.36;99263.69;1712897;82;21150;-71
2022/06/12 07:05:24;;;;;;;1.50;1.40;;;;;;;43.02;19.38;99269.22;1693992;82;22267;-71
2022/06/12 07:07:50;;;;;;;1.70;1.60;;;;;;;42.46;19.83;99267.39;1692418;82;21019;-73
2022/06/12 07:10:20;;;;;;;1.60;1.50;;;;;;;42.49;20.00;99264.41;1717812;82;21453;-76
2022/06/12 07:12:47;;;;;;;4.03;3.72;;;;;;;42.88;19.93;99261.33;1721581;82;20999;-77
2022/06/12 07:15:15;;;;;;;2.37;2.02;;;;;;;43.21;19.18;99268.72;1713361;82;20990;-75
2022/06/12 07:17:43;;;;;;;1.72;1.62;;;;;;;43.33;18.93;99263.63;1717620;82;20990;-74
2022/06/12 07:20:12;;;;;;;1.80;1.70;;;;;;;43.39;19.03;99260.63;1693089;82;21113;-76
2022/06/12 07:22:39;;;;;;;1.92;1.82;;;;;;;43.45;18.73;99270.27;1712994;82;20983;-72
2022/06/12 07:25:08;;;;;;;1.75;1.65;;;;;;;43.03;19.04;99270.03;1713041;82;21003;-72
2022/06/12 07:27:34;;;;;;;1.60;1.50;;;;;;;42.74;19.55;99269.02;1726833;82;21182;-74
2022/06/12 07:30:02;;;;;;;2.37;1.90;;;;;;;42.76;19.77;99265.23;1714676;82;21019;-71
2022/06/12 07:32:29;;;;;;;1.70;1.60;;;;;;;42.14;19.92;99266.30;1713036;82;21524;-72
2022/06/12 07:34:56;;;;;;;1.60;1.50;;;;;;;41.90;20.41;99265.45;1712934;82;21040;-72
2022/06/12 07:37:23;;;;;;;1.77;1.67;;;;;;;42.20;20.30;99270.36;1723578;82;21117;-72
2022/06/12 07:39:50;;;;;;;2.27;1.60;;;;;;;42.95;19.63;99267.79;1712884;82;21547;-73
2022/06/12 07:42:17;;;;;;;2.30;1.52;;;;;;;43.87;18.82;99259.00;1712906;82;20947;-73
2022/06/12 07:44:44;;;;;;;1.75;1.65;;;;;;;43.51;18.61;99262.29;1712241;82;21041;-71
2022/06/12 07:47:10;;;;;;;1.90;1.80;;;;;;;41.73;19.71;99269.08;1717004;82;20899;-81
2022/06/12 07:49:37;;;;;;;1.80;1.70;;;;;;;40.20;21.20;99264.97;1716092;82;21007;-76
2022/06/12 07:52:06;;;;;;;1.90;1.65;;;;;;;38.81;22.71;99265.46;1713002;82;21923;-74
2022/06/12 07:54:33;;;;;;;3.87;1.60;;;;;;;38.03;23.78;99264.06;1713876;82;21022;-77
2022/06/12 07:57:00;;;;;;;1.67;1.57;;;;;;;37.00;24.79;99271.92;1718164;82;21412;-78
2022/06/12 07:59:27;;;;;;;2.10;1.90;;;;;;;35.94;26.22;99271.13;1712826;82;20999;-76
2022/06/12 08:01:53;;;;;;;1.95;1.82;;;;;;;35.28;27.17;99270.26;1712114;82;21012;-76
2022/06/12 08:04:22;;;;;;;1.77;1.67;;;;;;;34.93;27.79;99271.08;1721742;82;21837;-73
2022/06/12 08:06:50;;;;;;;2.02;1.80;;;;;;;34.75;27.96;99270.95;1711836;82;20919;-75
2022/06/12 08:09:16;;;;;;;1.98;1.87;;;;;;;34.15;28.80;99265.69;1716062;82;20955;-74
2022/06/12 08:11:46;;;;;;;1.80;1.60;;;;;;;33.57;29.64;99269.59;1704854;82;21033;-76
2022/06/12 08:14:13;;;;;;;1.55;1.45;;;;;;;33.73;29.73;99263.82;1713556;82;20899;-78
2022/06/12 08:16:41;;;;;;;2.15;2.05;;;;;;;33.37;30.09;99273.81;1738585;82;21632;-79
2022/06/12 08:20:24;;;;;;;1.82;1.72;;;;;;;33.70;30.30;99271.36;1659928;85;21040;-76
2022/06/12 08:21:39;;;;;;;1.80;1.70;;;;;;;35.40;28.25;99268.95;1646280;84;20920;-73
2022/06/12 08:24:06;;;;;;;5.97;5.55;;;;;;;37.18;25.40;99258.02;1733011;82;20998;-74
2022/06/12 08:26:33;;;;;;;2.37;2.17;;;;;;;38.65;23.89;99260.48;1719716;82;21716;-74
2022/06/12 08:29:07;;;;;;;1.55;1.45;;;;;;;40.21;22.38;99264.59;1718056;82;21140;-73
2022/06/12 08:31:48;;;;;;;1.80;1.70;;;;;;;41.58;20.40;99258.09;1713639;82;21010;-74
2022/06/12 08:34:34;;;;;;;2.25;1.80;;;;;;;42.44;19.08;99260.80;1716198;82;21132;-76
2022/06/12 08:37:02;;;;;;;1.50;1.40;;;;;;;43.00;18.59;99256.23;1696837;82;20939;-76
2022/06/12 08:39:29;;;;;;;1.27;1.27;;;;;;;43.43;17.86;99266.26;1712863;82;20892;-68
2022/06/12 08:42:14;;;;;;;1.52;1.42;;;;;;;43.48;17.54;99261.67;1715809;82;21255;-70
2022/06/12 08:45:13;;;;;;;1.87;1.60;;;;;;;43.17;17.80;99259.52;1712646;82;20887;-75
2022/06/12 08:47:57;;;;;;;1.65;1.55;;;;;;;43.20;18.35;99263.73;1720212;82;20901;-71
2022/06/12 08:50:44;;;;;;;1.90;1.80;;;;;;;44.01;17.44;99260.44;1715828;82;20970;-71
2022/06/12 08:53:25;;;;;;;1.77;1.42;;;;;;;44.18;16.61;99260.48;1712841;82;20994;-70
2022/06/12 08:56:09;;;;;;;1.50;1.40;;;;;;;44.45;16.44;99259.48;1705132;82;21409;-70
2022/06/12 08:58:56;;;;;;;1.42;1.32;;;;;;;45.02;15.88;99250.42;1703419;82;20915;-70
2022/06/12 09:01:23;;;;;;;1.50;1.40;;;;;;;45.56;15.28;99256.63;1712696;82;21553;-69
2022/06/12 09:03:53;;;;;;;3.30;1.37;;;;;;;45.90;14.95;99249.23;1711763;83;20934;-70
2022/06/12 09:06:33;;;;;;;1.60;1.30;;;;;;;46.24;14.73;99248.00;1712876;82;20895;-72
2022/06/12 09:09:05;;;;;;;1.47;1.47;;;;;;;46.45;14.18;99239.41;1693317;82;21158;-72
2022/06/12 09:11:38;;;;;;;1.27;1.25;;;;;;;46.39;14.25;99248.09;1712340;82;20995;-72
2022/06/12 09:14:26;;;;;;;1.60;1.50;;;;;;;46.53;14.16;99249.38;1693667;82;20911;-68
2022/06/12 09:17:13;;;;;;;1.77;1.42;;;;;;;44.87;15.09;99252.27;1692468;82;21552;-73
2022/06/12 09:19:57;;;;;;;2.77;1.35;;;;;;;42.15;17.01;99246.97;1708532;82;21477;-74
2022/06/12 09:23:04;;;;;;;1.47;1.37;;;;;;;41.40;18.03;99241.73;1725588;82;21665;-76
2022/06/12 09:25:45;;;;;;;1.47;1.37;;;;;;;41.34;18.08;99243.25;1707967;82;20995;-76
2022/06/12 09:28:26;;;;;;;4.40;2.67;;;;;;;39.74;19.02;99256.55;1722613;82;21042;-74
2022/06/12 09:31:30;;;;;;;3.45;3.25;;;;;;;38.26;20.18;99241.45;1653283;84;21039;-76
2022/06/12 09:34:11;;;;;;;1.20;1.10;;;;;;;38.76;20.44;99237.95;1684732;84;20983;-74
2022/06/12 09:40:06;;;;;;;1.57;1.47;;;;;;;41.41;17.73;99228.78;1695589;82;21026;-74
2022/06/12 09:42:47;;;;;;;2.70;1.47;;;;;;;42.61;17.00;99218.80;1699550;84;23645;-75
2022/06/12 09:45:28;;;;;;;1.92;1.37;;;;;;;43.03;16.85;99228.06;1692989;84;21030;-73
2022/06/12 09:48:17;;;;;;;3.40;1.15;;;;;;;43.19;17.20;99227.14;1706894;84;21045;-75
2022/06/12 09:51:05;;;;;;;1.85;1.30;;;;;;;42.99;16.90;99225.27;1698176;84;21892;-76
2022/06/12 09:54:05;;;;;;;1.20;1.20;;;;;;;41.52;18.02;99225.53;1672096;82;21475;-74
2022/06/12 09:56:44;;;;;;;1.30;1.20;;;;;;;40.49;18.31;99218.32;1673325;84;21030;-74
2022/06/12 09:59:21;;;;;;;1.40;1.32;;;;;;;39.81;19.02;99231.64;1695379;84;20970;-75
2022/06/12 10:01:50;;;;;;;1.27;1.17;;;;;;;39.06;20.18;99230.46;1697879;82;21018;-74
2022/06/12 10:04:40;;;;;;;1.47;1.40;;;;;;;38.47;20.56;99224.52;1689750;82;21315;-74
2022/06/12 10:07:21;;;;;;;1.92;1.82;;;;;;;37.77;20.28;99224.05;1687336;82;21580;-75
2022/06/12 10:09:55;;;;;;;1.42;1.20;;;;;;;36.69;20.98;99225.41;1705502;82;20990;-76
2022/06/12 10:12:37;;;;;;;1.10;1.00;;;;;;;35.99;21.97;99227.19;1685681;82;20915;-74
2022/06/12 10:15:19;;;;;;;2.52;1.37;;;;;;;35.40;22.39;99221.13;1659671;86;20991;-74
2022/06/12 10:17:57;;;;;;;1.30;1.20;;;;;;;34.90;23.13;99230.30;1700950;82;21447;-75
2022/06/12 10:20:29;;;;;;;1.32;1.22;;;;;;;34.36;23.46;99232.64;1661871;86;20939;-74
2022/06/12 10:22:58;;;;;;;1.85;0.95;;;;;;;33.81;24.03;99231.27;1705827;82;20950;-73
2022/06/12 10:25:35;;;;;;;1.40;1.30;;;;;;;33.38;24.80;99222.47;1697025;84;21516;-75
2022/06/12 10:28:29;;;;;;;1.95;1.40;;;;;;;32.85;25.63;99224.13;1691810;82;20868;-75
2022/06/12 10:31:10;;;;;;;1.22;1.12;;;;;;;32.38;26.35;99214.55;1685576;82;21198;-75
2022/06/12 10:33:52;;;;;;;1.20;1.20;;;;;;;32.09;27.11;99214.53;1705521;82;20951;-75
2022/06/12 10:36:25;;;;;;;1.67;1.30;;;;;;;32.05;27.63;99215.46;1699696;82;20879;-75
2022/06/12 10:39:13;;;;;;;1.30;1.20;;;;;;;31.98;27.35;99212.34;1708830;83;20951;-76
2022/06/12 10:41:57;;;;;;;1.17;1.10;;;;;;;31.88;27.40;99209.30;1705588;82;20899;-77
2022/06/12 10:44:47;;;;;;;1.67;1.20;;;;;;;31.78;27.24;99210.95;1703654;82;21250;-77
2022/06/12 10:47:31;;;;;;;1.10;1.00;;;;;;;31.59;26.32;99211.72;1709469;82;21033;-75
2022/06/12 10:50:26;;;;;;;2.58;1.32;;;;;;;31.25;26.77;99209.52;1695661;82;20868;-78
2022/06/12 10:53:04;;;;;;;1.15;0.95;;;;;;;30.99;27.91;99212.06;1703602;82;20947;-77
2022/06/12 10:55:53;;;;;;;0.80;0.80;;;;;;;30.89;27.83;99216.95;1709395;82;20900;-76
2022/06/12 10:58:44;;;;;;;1.62;1.52;;;;;;;30.91;27.94;99210.05;1688643;82;21137;-77
2022/06/12 11:01:57;;;;;;;0.80;0.80;;;;;;;30.90;27.96;99203.45;1702870;84;20892;-77
2022/06/12 11:05:05;;;;;;;1.37;0.88;;;;;;;30.86;27.99;99213.44;1706020;82;20951;-76
2022/06/12 11:07:55;;;;;;;1.27;1.27;;;;;;;30.79;28.33;99207.57;1689838;82;21106;-76
2022/06/12 11:10:38;;;;;;;1.02;1.00;;;;;;;30.84;28.23;99212.95;1695490;82;20968;-77
2022/06/12 11:13:39;;;;;;;2.05;1.10;;;;;;;30.82;28.20;99212.42;1712424;82;21091;-77
2022/06/12 11:16:17;;;;;;;1.22;0.95;;;;;;;30.76;28.45;99209.55;1701054;82;21002;-72
2022/06/12 11:18:58;;;;;;;1.00;0.98;;;;;;;30.57;28.25;99208.31;1718118;82;20979;-76
2022/06/12 11:21:48;;;;;;;1.72;1.60;;;;;;;30.44;28.55;99209.96;1713406;82;20951;-72
2022/06/12 11:24:19;;;;;;;1.82;1.72;;;;;;;30.33;28.35;99204.95;1713720;82;21049;-72
2022/06/12 11:27:16;;;;;;;1.40;1.30;;;;;;;30.16;28.09;99206.95;1723069;82;21148;-73
2022/06/12 11:29:52;;;;;;;0.78;0.78;;;;;;;30.01;27.54;99216.03;1686637;82;20975;-76
2022/06/12 11:32:36;;;;;;;1.57;1.10;;;;;;;29.85;28.28;99212.19;1704746;82;20960;-71
2022/06/12 11:35:37;;;;;;;0.82;0.82;;;;;;;29.80;28.80;99206.80;1705677;82;20919;-69
2022/06/12 11:38:25;;;;;;;0.95;0.90;;;;;;;29.84;28.97;99209.20;1714875;81;21021;-69
2022/06/12 11:41:09;;;;;;;0.85;0.80;;;;;;;29.94;28.42;99206.27;1709167;82;21817;-70
2022/06/12 11:43:42;;;;;;;1.20;0.93;;;;;;;29.95;28.23;99202.98;1698892;82;21512;-71
2022/06/12 11:46:32;;;;;;;0.90;0.90;;;;;;;29.82;28.21;99201.84;1712148;82;20935;-69
2022/06/12 11:49:16;;;;;;;0.80;0.80;;;;;;;29.69;28.43;99191.64;1710148;82;21559;-70
2022/06/12 11:52:14;;;;;;;1.15;0.95;;;;;;;29.59;29.08;99191.80;1696031;82;21021;-70
2022/06/12 11:55:20;;;;;;;1.00;1.00;;;;;;;29.45;29.49;99184.11;1712969;82;21431;-70
2022/06/12 11:58:18;;;;;;;1.02;0.90;;;;;;;29.46;29.84;99189.05;1713035;82;20942;-70
2022/06/12 12:01:06;;;;;;;1.02;0.93;;;;;;;29.41;30.14;99182.28;1713500;82;20958;-70
2022/06/12 12:04:03;;;;;;;1.20;0.80;;;;;;;29.38;30.92;99174.90;1713498;82;20876;-69
2022/06/12 12:07:06;;;;;;;0.95;0.80;;;;;;;29.36;30.22;99179.88;1689438;82;20927;-70
2022/06/12 12:10:03;;;;;;;1.90;1.80;;;;;;;29.35;30.10;99177.44;1700520;82;21547;-71
2022/06/12 12:12:35;;;;;;;2.05;1.95;;;;;;;29.29;30.29;99179.45;1713633;82;20887;-70
2022/06/12 12:15:05;;;;;;;1.98;1.87;;;;;;;29.25;29.86;99179.78;1713047;82;20891;-70
2022/06/12 12:17:37;;;;;;;1.95;1.00;;;;;;;29.21;29.70;99169.73;1713465;82;20868;-70
2022/06/12 12:20:28;;;;;;;2.17;0.80;;;;;;;29.14;29.79;99176.94;1713553;82;21049;-71
2022/06/12 12:23:02;;;;;;;1.25;0.90;;;;;;;29.02;29.80;99172.45;1712547;82;21224;-70
2022/06/12 12:26:01;;;;;;;1.85;0.90;;;;;;;28.92;29.96;99171.25;1693198;82;21471;-70
2022/06/12 12:28:41;;;;;;;0.88;0.88;;;;;;;28.83;29.74;99165.38;1712831;82;20943;-70
2022/06/12 12:31:13;;;;;;;1.15;1.10;;;;;;;28.70;30.45;99175.16;1713566;82;20986;-71
2022/06/12 12:33:41;;;;;;;0.80;0.80;;;;;;;28.65;30.69;99167.02;1713703;83;20891;-69